Time;durP1;ratioP1;P1;durP2;ratioP2;P2;SDS_P1;SDS_P2;PMS_P1;PMS_P2;Temp;Humidity;BMP_temperature;BMP_pressure;BME280_temperature;BME280_humidity;BME280_pressure;Samples;Min_cycle;Max_cycle;Signal;HPM_P1;HPM_P2
2023/08/05 00:02:42;;;;;;;;;;;;;;;16.50;85.80;97809.44;5119480;27;20335;-59
2023/08/05 00:05:32;;;;;;;;;;;;;;;16.46;85.86;97797.63;5121997;27;19950;-58
2023/08/05 00:08:21;;;;;;;;;;;;;;;16.44;86.37;97797.16;5121070;27;19927;-61
2023/08/05 00:11:09;;;;;;;;;;;;;;;16.46;86.37;97792.91;5101846;27;19923;-58
2023/08/05 00:13:57;;;;;;;;;;;;;;;16.49;86.19;97783.19;5120189;27;19932;-59
2023/08/05 00:16:45;;;;;;;;;;;;;;;16.45;86.31;97774.06;5104394;27;19954;-59
2023/08/05 00:19:34;;;;;;;;;;;;;;;16.45;86.17;97788.56;5121589;27;19928;-62
2023/08/05 00:22:23;;;;;;;;;;;;;;;16.43;86.13;97790.06;5112999;27;20427;-59
2023/08/05 00:25:11;;;;;;;;;;;;;;;16.27;86.46;97781.84;5104125;27;20571;-59
2023/08/05 00:28:00;;;;;;;;;;;;;;;16.32;86.80;97786.25;5110221;27;19934;-60
2023/08/05 00:30:48;;;;;;;;;;;;;;;16.24;87.01;97779.78;5102696;27;19931;-60
2023/08/05 00:33:36;;;;;;;;;;;;;;;16.26;86.99;97776.72;5127243;27;20585;-60
2023/08/05 00:36:24;;;;;;;;;;;;;;;16.27;86.48;97779.09;5102804;27;19934;-59
2023/08/05 00:39:14;;;;;;;;;;;;;;;16.32;86.51;97778.03;5116203;27;19935;-60
2023/08/05 00:42:02;;;;;;;;;;;;;;;16.27;87.21;97779.09;5116797;27;19927;-58
2023/08/05 00:44:51;;;;;;;;;;;;;;;16.32;87.26;97767.06;5119533;27;20006;-59
2023/08/05 00:47:39;;;;;;;;;;;;;;;16.34;87.17;97756.53;5103346;27;19924;-59
2023/08/05 00:50:28;;;;;;;;;;;;;;;16.32;87.22;97753.38;5107122;27;19927;-60
2023/08/05 00:53:16;;;;;;;;;;;;;;;16.34;86.72;97757.34;5132941;27;19988;-59
2023/08/05 00:56:06;;;;;;;;;;;;;;;16.41;86.32;97767.72;5115755;27;19958;-60
2023/08/05 00:58:56;;;;;;;;;;;;;;;16.42;86.25;97774.78;5104067;27;19927;-59
2023/08/05 01:01:44;;;;;;;;;;;;;;;16.41;86.30;97784.16;5115326;27;19927;-59
2023/08/05 01:04:33;;;;;;;;;;;;;;;16.38;86.20;97793.06;5123551;27;19931;-61
2023/08/05 01:07:21;;;;;;;;;;;;;;;16.38;85.97;97790.34;5120702;27;20300;-58
2023/08/05 01:10:10;;;;;;;;;;;;;;;16.40;86.22;97779.81;5104492;28;20853;-62
2023/08/05 01:13:00;;;;;;;;;;;;;;;16.45;86.18;97779.53;5107401;28;19923;-60
2023/08/05 01:15:49;;;;;;;;;;;;;;;16.43;86.32;97773.63;5106550;28;19924;-60
2023/08/05 01:18:37;;;;;;;;;;;;;;;16.42;86.45;97775.56;5123748;27;19930;-59
2023/08/05 01:21:30;;;;;;;;;;;;;;;16.44;86.56;97777.94;5105290;28;19988;-60
2023/08/05 01:24:20;;;;;;;;;;;;;;;16.44;86.25;97772.47;5107598;28;20510;-59
2023/08/05 01:27:10;;;;;;;;;;;;;;;16.41;86.25;97778.69;5132380;27;19924;-59
2023/08/05 01:29:59;;;;;;;;;;;;;;;16.44;86.27;97772.47;5135565;27;19939;-59
2023/08/05 01:32:47;;;;;;;;;;;;;;;16.44;86.27;97777.94;5123675;28;19950;-60
2023/08/05 01:35:35;;;;;;;;;;;;;;;16.42;86.12;97781.06;5130859;27;19923;-59
2023/08/05 01:38:23;;;;;;;;;;;;;;;16.43;86.13;97779.09;5118772;28;20057;-60
2023/08/05 01:41:12;;;;;;;;;;;;;;;16.40;86.49;97769.63;5133678;27;20405;-59
2023/08/05 01:44:02;;;;;;;;;;;;;;;16.44;86.07;97769.72;5130475;27;20465;-61
2023/08/05 01:46:50;;;;;;;;;;;;;;;16.42;85.64;97763.81;5127071;27;19927;-59
2023/08/05 01:49:39;;;;;;;;;;;;;;;16.34;86.00;97756.53;5139199;27;20015;-60
2023/08/05 01:52:27;;;;;;;;;;;;;;;16.36;85.87;97755.06;5110022;27;20023;-60
2023/08/05 01:55:18;;;;;;;;;;;;;;;16.27;86.42;97745.41;5126564;27;19976;-60
2023/08/05 01:58:07;;;;;;;;;;;;;;;16.23;86.24;97743.34;5104495;27;19939;-60
2023/08/05 02:00:56;;;;;;;;;;;;;;;16.27;86.16;97728.97;5140321;27;19951;-59
2023/08/05 02:03:45;;;;;;;;;;;;;;;16.21;86.22;97731.97;5109016;27;19960;-61
2023/08/05 02:06:34;;;;;;;;;;;;;;;16.26;86.05;97738.34;5136247;27;19927;-59
2023/08/05 02:09:22;;;;;;;;;;;;;;;16.19;86.03;97738.91;5108600;27;20215;-60
2023/08/05 02:12:10;;;;;;;;;;;;;;;16.15;86.16;97733.38;5118389;27;19991;-60
2023/08/05 02:14:58;;;;;;;;;;;;;;;16.11;86.61;97737.97;5108118;27;19956;-60
2023/08/05 02:17:49;;;;;;;;;;;;;;;16.14;86.26;97726.31;5137595;27;20030;-59
2023/08/05 02:20:37;;;;;;;;;;;;;;;16.16;86.26;97721.25;5104998;27;19997;-59
2023/08/05 02:23:25;;;;;;;;;;;;;;;16.17;86.06;97714.63;5126394;27;19928;-59
2023/08/05 02:26:13;;;;;;;;;;;;;;;16.11;86.18;97716.03;5103188;27;19923;-58
2023/08/05 02:29:01;;;;;;;;;;;;;;;16.09;86.49;97706.59;5130555;27;19931;-59
2023/08/05 02:31:50;;;;;;;;;;;;;;;16.07;86.86;97706.13;5123908;27;19943;-60
2023/08/05 02:34:39;;;;;;;;;;;;;;;16.02;86.54;97700.91;5108038;27;19952;-61
2023/08/05 02:37:27;;;;;;;;;;;;;;;15.94;87.26;97702.66;5132799;27;19963;-58
2023/08/05 02:40:15;;;;;;;;;;;;;;;16.03;86.89;97697.78;5106436;27;19923;-64
2023/08/05 02:43:03;;;;;;;;;;;;;;;16.06;86.93;97702.59;5124343;27;20450;-59
2023/08/05 02:45:55;;;;;;;;;;;;;;;16.02;87.09;97700.91;5102907;27;19934;-59
2023/08/05 02:48:44;;;;;;;;;;;;;;;16.06;86.34;97701.78;5118368;27;20724;-60
2023/08/05 02:51:33;;;;;;;;;;;;;;;15.99;86.47;97707.88;5102023;27;19935;-60
2023/08/05 02:54:21;;;;;;;;;;;;;;;16.00;86.59;97704.00;5105916;27;19927;-59
2023/08/05 02:57:09;;;;;;;;;;;;;;;15.96;86.63;97706.63;5122023;27;19923;-59
2023/08/05 02:59:57;;;;;;;;;;;;;;;15.97;86.49;97704.69;5128139;27;19923;-59
2023/08/05 03:02:46;;;;;;;;;;;;;;;15.98;86.55;97701.63;5122943;27;20447;-59
2023/08/05 03:05:38;;;;;;;;;;;;;;;15.94;86.60;97700.72;5122330;27;19937;-60
2023/08/05 03:08:27;;;;;;;;;;;;;;;15.97;86.61;97699.22;5131883;27;19923;-59
2023/08/05 03:11:16;;;;;;;;;;;;;;;16.04;86.70;97709.59;5118012;27;19938;-60
2023/08/05 03:14:04;;;;;;;;;;;;;;;15.98;86.73;97720.78;5114594;27;19930;-59
2023/08/05 03:16:52;;;;;;;;;;;;;;;15.98;86.58;97722.75;5097407;27;19935;-59
2023/08/05 03:19:41;;;;;;;;;;;;;;;15.93;86.42;97725.75;5132001;27;19924;-59
2023/08/05 03:22:29;;;;;;;;;;;;;;;15.83;86.82;97737.19;5093237;28;19935;-59
2023/08/05 03:25:19;;;;;;;;;;;;;;;15.94;86.93;97743.75;5093984;28;19931;-59
2023/08/05 03:28:07;;;;;;;;;;;;;;;15.98;86.71;97755.63;5115442;27;20016;-59
2023/08/05 03:31:00;;;;;;;;;;;;;;;16.07;86.53;97761.72;5094187;28;19928;-59
2023/08/05 03:33:51;;;;;;;;;;;;;;;16.10;85.77;97769.25;5129197;27;19928;-59
2023/08/05 03:36:40;;;;;;;;;;;;;;;16.06;85.97;97786.75;5102677;28;19923;-59
2023/08/05 03:39:29;;;;;;;;;;;;;;;16.06;86.07;97794.97;5102358;27;20534;-61
2023/08/05 03:42:18;;;;;;;;;;;;;;;16.11;85.93;97787.28;5113580;27;19930;-60
2023/08/05 03:45:07;;;;;;;;;;;;;;;16.11;86.05;97786.50;5098539;27;19924;-60
2023/08/05 03:47:55;;;;;;;;;;;;;;;16.07;85.91;97783.63;5104169;28;19928;-58
2023/08/05 03:50:44;;;;;;;;;;;;;;;16.11;85.93;97778.28;5092433;28;19938;-60
2023/08/05 03:53:33;;;;;;;;;;;;;;;16.08;85.95;97774.28;5099808;28;19928;-61
2023/08/05 03:56:27;;;;;;;;;;;;;;;16.05;85.92;97772.25;5113263;27;20480;-59
2023/08/05 03:59:20;;;;;;;;;;;;;;;16.13;85.81;97782.25;5097302;28;20112;-59
2023/08/05 04:02:08;;;;;;;;;;;;;;;16.10;85.66;97779.41;5099449;28;19924;-59
2023/08/05 04:04:57;;;;;;;;;;;;;;;16.11;85.59;97784.53;5089710;28;19927;-60
2023/08/05 04:07:46;;;;;;;;;;;;;;;16.08;85.25;97781.69;5128038;27;20424;-59
2023/08/05 04:10:35;;;;;;;;;;;;;;;16.03;85.71;97785.47;5090816;28;19942;-59
2023/08/05 04:13:26;;;;;;;;;;;;;;;16.03;85.66;97781.94;5088544;28;19928;-61
2023/08/05 04:16:16;;;;;;;;;;;;;;;16.01;85.53;97785.06;5118743;27;20046;-60
2023/08/05 04:19:06;;;;;;;;;;;;;;;16.02;85.49;97783.91;5094997;28;19930;-59
2023/08/05 04:21:54;;;;;;;;;;;;;;;16.01;85.51;97782.31;5079274;28;20001;-61
2023/08/05 04:24:45;;;;;;;;;;;;;;;16.01;85.51;97779.56;5110764;27;19931;-59
2023/08/05 04:27:33;;;;;;;;;;;;;;;16.07;85.19;97771.88;5102518;28;20021;-60
2023/08/05 04:30:21;;;;;;;;;;;;;;;16.02;85.39;97764.72;5096568;28;19932;-60
2023/08/05 04:33:11;;;;;;;;;;;;;;;16.04;85.31;97761.66;5099072;28;19931;-61
2023/08/05 04:35:59;;;;;;;;;;;;;;;16.01;85.11;97760.38;5098453;28;19991;-60
2023/08/05 04:38:47;;;;;;;;;;;;;;;16.03;85.23;97752.59;5086524;28;19928;-60
2023/08/05 04:41:39;;;;;;;;;;;;;;;16.02;85.13;97745.53;5097593;28;20298;-60
2023/08/05 04:44:27;;;;;;;;;;;;;;;16.00;85.25;97745.09;5105554;27;19924;-61
2023/08/05 04:47:15;;;;;;;;;;;;;;;16.00;85.38;97747.84;5096783;28;19970;-60
2023/08/05 04:50:05;;;;;;;;;;;;;;;16.06;84.91;97740.94;5100628;28;19923;-61
2023/08/05 04:52:53;;;;;;;;;;;;;;;16.02;85.42;97744.75;5098179;28;19963;-59
2023/08/05 04:55:41;;;;;;;;;;;;;;;16.03;85.23;97751.81;5096091;28;20013;-58
2023/08/05 04:58:29;;;;;;;;;;;;;;;16.05;85.30;97761.28;5100926;28;19976;-59
2023/08/05 05:01:17;;;;;;;;;;;;;;;16.05;84.90;97766.75;5099886;28;19935;-59
2023/08/05 05:04:06;;;;;;;;;;;;;;;16.05;85.05;97765.97;5097003;28;19938;-61
2023/08/05 05:06:56;;;;;;;;;;;;;;;16.01;85.17;97765.88;5102144;28;19935;-59
2023/08/05 05:09:45;;;;;;;;;;;;;;;15.98;85.19;97766.59;5110764;27;20367;-59
2023/08/05 05:12:33;;;;;;;;;;;;;;;15.99;85.48;97770.91;5099820;28;19928;-61
2023/08/05 05:15:21;;;;;;;;;;;;;;;16.05;85.33;97788.69;5095739;28;19924;-60
2023/08/05 05:18:10;;;;;;;;;;;;;;;16.03;85.46;97788.22;5101458;28;20088;-59
2023/08/05 05:20:59;;;;;;;;;;;;;;;16.09;85.37;97786.06;5085986;28;19988;-60
2023/08/05 05:23:48;;;;;;;;;;;;;;;16.09;85.36;97778.63;5100900;28;19927;-59
2023/08/05 05:26:36;;;;;;;;;;;;;;;16.08;85.57;97771.53;5102508;28;20806;-59
2023/08/05 05:29:24;;;;;;;;;;;;;;;16.12;85.09;97772.44;5114492;28;20068;-62
2023/08/05 05:32:13;;;;;;;;;;;;;;;16.17;84.81;97771.38;5095769;28;19931;-61
2023/08/05 05:35:01;;;;;;;;;;;;;;;16.21;84.81;97778.56;5109669;28;19972;-59
2023/08/05 05:37:49;;;;;;;;;;;;;;;16.19;85.05;97772.63;5110424;28;19932;-61
2023/08/05 05:40:41;;;;;;;;;;;;;;;16.18;85.02;97765.53;5088531;28;20085;-61
2023/08/05 05:43:29;;;;;;;;;;;;;;;16.20;85.01;97765.22;5102655;28;20092;-60
2023/08/05 05:46:19;;;;;;;;;;;;;;;16.18;85.06;97762.78;5110250;28;19924;-59
2023/08/05 05:49:10;;;;;;;;;;;;;;;16.16;85.29;97753.34;5077793;28;20449;-60
2023/08/05 05:51:58;;;;;;;;;;;;;;;16.13;85.21;97745.81;5096454;28;20463;-59
2023/08/05 05:54:46;;;;;;;;;;;;;;;16.21;85.41;97751.16;5084674;28;20627;-58
2023/08/05 05:57:35;;;;;;;;;;;;;;;16.20;85.38;97757.78;5100390;28;20323;-58
2023/08/05 06:00:23;;;;;;;;;;;;;;;16.25;85.00;97756.72;5093841;28;19935;-59
2023/08/05 06:03:12;;;;;;;;;;;;;;;16.24;85.00;97747.72;5098739;28;19980;-59
2023/08/05 06:06:00;;;;;;;;;;;;;;;16.29;84.93;97746.63;5095639;28;19923;-59
2023/08/05 06:08:48;;;;;;;;;;;;;;;16.30;84.85;97750.16;5099597;28;19924;-60
2023/08/05 06:11:36;;;;;;;;;;;;;;;16.23;84.63;97746.09;5098141;28;19927;-59
2023/08/05 06:14:26;;;;;;;;;;;;;;;16.29;83.75;97743.09;5094267;28;19974;-59
2023/08/05 06:17:14;;;;;;;;;;;;;;;16.30;83.08;97747.41;5098014;28;20455;-58
2023/08/05 06:20:03;;;;;;;;;;;;;;;16.32;83.16;97754.16;5098627;28;19923;-61
2023/08/05 06:22:52;;;;;;;;;;;;;;;16.38;83.50;97763.72;5117916;27;19931;-60
2023/08/05 06:25:40;;;;;;;;;;;;;;;16.35;83.69;97763.59;5116768;27;19970;-59
2023/08/05 06:28:29;;;;;;;;;;;;;;;16.41;83.69;97767.72;5121702;27;19935;-59
2023/08/05 06:31:18;;;;;;;;;;;;;;;16.49;83.67;97775.75;5107181;27;19970;-59
2023/08/05 06:34:07;;;;;;;;;;;;;;;16.48;83.35;97776.91;5120269;27;20493;-58
2023/08/05 06:36:56;;;;;;;;;;;;;;;16.54;82.72;97771.94;5117566;27;19934;-59
2023/08/05 06:39:44;;;;;;;;;;;;;;;16.54;82.59;97762.94;5119443;27;20012;-60
2023/08/05 06:42:32;;;;;;;;;;;;;;;16.53;82.17;97759.38;5120693;27;19928;-60
2023/08/05 06:45:20;;;;;;;;;;;;;;;16.51;82.63;97764.41;5113277;27;20014;-61
2023/08/05 06:48:10;;;;;;;;;;;;;;;16.53;82.15;97761.34;5097318;27;20403;-59
2023/08/05 06:50:58;;;;;;;;;;;;;;;16.52;82.07;97760.53;5116168;27;19928;-60
2023/08/05 06:53:47;;;;;;;;;;;;;;;16.57;82.29;97756.75;5107577;27;19923;-61
2023/08/05 06:56:35;;;;;;;;;;;;;;;16.57;81.96;97763.03;5117631;27;19924;-60
2023/08/05 06:59:23;;;;;;;;;;;;;;;16.59;81.85;97763.47;5120020;27;19927;-59
2023/08/05 07:02:12;;;;;;;;;;;;;;;16.57;81.99;97771.25;5113088;27;19924;-60
2023/08/05 07:05:03;;;;;;;;;;;;;;;16.61;82.02;97772.13;5112944;27;20335;-61
2023/08/05 07:07:51;;;;;;;;;;;;;;;16.64;81.95;97773.38;5119679;27;20260;-62
2023/08/05 07:10:41;;;;;;;;;;;;;;;16.61;82.08;97766.63;5114583;27;19924;-59
2023/08/05 07:13:29;;;;;;;;;;;;;;;16.70;81.79;97778.22;5117771;27;20288;-60
2023/08/05 07:16:18;;;;;;;;;;;;;;;16.68;81.83;97777.78;5119123;27;19923;-60
2023/08/05 07:19:06;;;;;;;;;;;;;;;16.70;82.17;97764.50;5096299;28;19934;-61
2023/08/05 07:21:57;;;;;;;;;;;;;;;16.77;81.90;97763.91;5094178;28;20073;-60
2023/08/05 07:24:45;;;;;;;;;;;;;;;16.76;81.96;97763.13;5084316;28;20251;-59
2023/08/05 07:27:33;;;;;;;;;;;;;;;16.81;81.62;97764.00;5095767;28;19935;-60
2023/08/05 07:30:21;;;;;;;;;;;;;;;16.82;80.82;97760.09;5098539;27;19923;-59
2023/08/05 07:33:11;;;;;;;;;;;;;;;16.80;81.04;97768.69;5096971;28;19942;-60
2023/08/05 07:36:07;;;;;;;;;;;;;;;16.79;80.35;97767.13;5095681;28;19931;-61
2023/08/05 07:38:58;;;;;;;;;;;;;;;16.87;80.58;97773.56;5091755;28;20722;-62
2023/08/05 07:41:46;;;;;;;;;;;;;;;16.94;80.08;97768.25;5098944;28;19924;-59
2023/08/05 07:44:34;;;;;;;;;;;;;;;16.97;79.49;97767.53;5098061;28;19924;-60
2023/08/05 07:47:23;;;;;;;;;;;;;;;16.97;79.27;97773.81;5096106;28;19931;-60
2023/08/05 07:50:14;;;;;;;;;;;;;;;17.00;79.06;97773.09;5089729;28;19935;-60
2023/08/05 07:53:04;;;;;;;;;;;;;;;16.99;78.54;97776.19;5103191;27;19931;-63
2023/08/05 07:55:54;;;;;;;;;;;;;;;17.02;78.97;97775.47;5096717;28;19967;-61
2023/08/05 07:58:45;;;;;;;;;;;;;;;17.03;78.81;97788.03;5096730;28;19932;-61
2023/08/05 08:01:34;;;;;;;;;;;;;;;17.05;78.38;97785.75;5094227;28;19927;-61
2023/08/05 08:04:22;;;;;;;;;;;;;;;17.07;78.16;97777.16;5097704;28;20235;-61
2023/08/05 08:07:10;;;;;;;;;;;;;;;17.02;77.76;97776.28;5075461;28;20030;-59
2023/08/05 08:09:59;;;;;;;;;;;;;;;17.10;78.00;97776.44;5100317;28;19985;-62
2023/08/05 08:12:48;;;;;;;;;;;;;;;17.13;77.92;97776.53;5072752;28;19928;-61
2023/08/05 08:15:36;;;;;;;;;;;;;;;17.13;77.51;97773.78;5095829;28;19931;-59
2023/08/05 08:18:24;;;;;;;;;;;;;;;17.20;77.67;97784.91;5085080;27;19927;-61
2023/08/05 08:21:13;;;;;;;;;;;;;;;17.25;77.15;97784.63;5118885;27;19948;-61
2023/08/05 08:24:01;;;;;;;;;;;;;;;17.27;77.77;97782.34;5119152;27;19942;-61
2023/08/05 08:26:49;;;;;;;;;;;;;;;17.28;76.73;97772.16;5117917;27;19935;-62
2023/08/05 08:29:39;;;;;;;;;;;;;;;17.31;77.22;97767.88;5117949;27;19935;-60
2023/08/05 08:32:27;;;;;;;;;;;;;;;17.32;76.35;97766.75;5116728;27;19928;-60
2023/08/05 08:35:15;;;;;;;;;;;;;;;17.33;77.07;97765.59;5104883;27;20030;-62
2023/08/05 08:38:04;;;;;;;;;;;;;;;17.42;77.17;97760.69;5114920;27;19931;-62
2023/08/05 08:40:53;;;;;;;;;;;;;;;17.45;75.73;97749.75;5102754;27;19927;-61
2023/08/05 08:43:41;;;;;;;;;;;;;;;17.51;76.18;97753.81;5119776;27;19934;-61
2023/08/05 08:46:30;;;;;;;;;;;;;;;17.44;75.89;97747.38;5110845;27;20034;-62
2023/08/05 08:49:19;;;;;;;;;;;;;;;17.51;75.93;97742.81;5118714;27;19927;-62
2023/08/05 08:52:07;;;;;;;;;;;;;;;17.55;75.79;97753.91;5121437;27;19930;-62
2023/08/05 08:54:56;;;;;;;;;;;;;;;17.58;75.79;97764.19;5121988;27;19939;-59
2023/08/05 08:57:44;;;;;;;;;;;;;;;17.61;75.59;97755.19;5101831;27;20329;-62
2023/08/05 09:00:32;;;;;;;;;;;;;;;17.61;74.90;97759.91;5121504;27;19931;-59
2023/08/05 09:03:23;;;;;;;;;;;;;;;17.64;74.89;97762.72;5110608;27;19935;-60
2023/08/05 09:06:12;;;;;;;;;;;;;;;17.70;75.47;97761.28;5117614;27;20335;-59
2023/08/05 09:09:00;;;;;;;;;;;;;;;17.69;75.13;97759.69;5128461;27;20453;-60
2023/08/05 09:11:48;;;;;;;;;;;;;;;17.71;75.44;97751.88;5110822;27;19923;-60
2023/08/05 09:14:37;;;;;;;;;;;;;;;17.67;74.88;97753.75;5112121;27;19931;-60
2023/08/05 09:17:27;;;;;;;;;;;;;;;17.75;74.74;97761.03;5117837;27;20615;-59
2023/08/05 09:20:21;;;;;;;;;;;;;;;17.78;73.57;97757.53;5112955;27;19924;-60
2023/08/05 09:23:10;;;;;;;;;;;;;;;17.85;73.92;97750.59;5117997;28;20472;-60
2023/08/05 09:25:58;;;;;;;;;;;;;;;17.89;74.27;97748.69;5112863;27;20018;-61
2023/08/05 09:28:46;;;;;;;;;;;;;;;17.90;74.37;97753.84;5127162;27;19927;-60
2023/08/05 09:31:35;;;;;;;;;;;;;;;17.90;74.26;97769.56;5100481;28;19935;-61
2023/08/05 09:34:29;;;;;;;;;;;;;;;17.98;74.08;97760.28;5120650;28;19927;-61
2023/08/05 09:37:18;;;;;;;;;;;;;;;18.02;73.61;97756.44;5108445;28;19927;-62
2023/08/05 09:40:15;;;;;;;;;;;;;;;18.07;73.32;97741.59;5119058;28;19941;-59
2023/08/05 09:43:03;;;;;;;;;;;;;;;17.97;74.11;97736.69;5094684;27;19938;-61
2023/08/05 09:45:52;;;;;;;;;;;;;;;17.98;73.98;97749.28;5120020;28;20413;-62
2023/08/05 09:48:41;;;;;;;;;;;;;;;17.98;73.00;97750.06;5117169;28;19930;-61
2023/08/05 09:51:30;;;;;;;;;;;;;;;17.91;73.50;97749.16;5120494;28;19935;-60
2023/08/05 09:54:23;;;;;;;;;;;;;;;17.97;73.88;97748.50;5109913;28;20016;-60
2023/08/05 09:57:13;;;;;;;;;;;;;;;18.00;73.23;97744.19;5115618;27;20018;-63
2023/08/05 10:00:06;;;;;;;;;;;;;;;18.00;72.24;97725.78;5117290;27;20443;-61
2023/08/05 10:02:55;;;;;;;;;;;;;;;18.08;71.79;97732.19;5120234;27;20428;-61
2023/08/05 10:05:44;;;;;;;;;;;;;;;18.18;71.52;97731.59;5125224;27;19932;-60
2023/08/05 10:08:35;;;;;;;;;;;;;;;18.24;71.68;97724.63;5127373;27;20045;-60
2023/08/05 10:11:25;;;;;;;;;;;;;;;18.33;71.77;97722.44;5127040;27;20474;-60
2023/08/05 10:14:13;;;;;;;;;;;;;;;18.33;72.15;97716.94;5126334;27;19938;-62
2023/08/05 10:17:02;;;;;;;;;;;;;;;18.29;71.75;97721.56;5118874;27;19970;-60
2023/08/05 10:19:50;;;;;;;;;;;;;;;18.27;71.76;97729.41;5119788;27;20484;-60
2023/08/05 10:22:39;;;;;;;;;;;;;;;18.49;71.32;97714.06;5102926;27;19931;-60
2023/08/05 10:25:38;;;;;;;;;;;;;;;18.53;71.52;97708.59;5117167;27;19935;-60
2023/08/05 10:28:40;;;;;;;;;;;;;;;18.50;70.63;97712.09;5114206;27;20383;-60
2023/08/05 10:31:29;;;;;;;;;;;;;;;18.47;70.39;97699.88;5119189;27;19927;-60
2023/08/05 10:34:18;;;;;;;;;;;;;;;18.57;69.88;97702.00;5116438;27;19930;-61
2023/08/05 10:37:06;;;;;;;;;;;;;;;18.72;69.19;97705.81;5125883;27;20064;-61
2023/08/05 10:40:00;;;;;;;;;;;;;;;18.67;68.81;97697.03;5106065;27;19974;-60
2023/08/05 10:42:50;;;;;;;;;;;;;;;18.74;68.52;97699.91;5126105;27;19935;-60
2023/08/05 10:45:41;;;;;;;;;;;;;;;18.73;68.30;97696.38;5107853;27;19939;-60
2023/08/05 10:48:30;;;;;;;;;;;;;;;18.67;69.44;97692.31;5119951;27;19927;-59
2023/08/05 10:51:19;;;;;;;;;;;;;;;18.63;69.16;97696.97;5127650;27;19927;-62
2023/08/05 10:54:08;;;;;;;;;;;;;;;18.66;69.71;97692.69;5126523;27;19938;-61
2023/08/05 10:56:56;;;;;;;;;;;;;;;18.74;68.81;97691.66;5118347;27;20003;-61
2023/08/05 10:59:57;;;;;;;;;;;;;;;18.76;68.28;97676.38;5108376;27;19923;-60
2023/08/05 11:02:47;;;;;;;;;;;;;;;18.84;68.46;97683.56;5102863;27;19990;-61
2023/08/05 11:05:35;;;;;;;;;;;;;;;18.90;68.66;97674.97;5108359;27;20288;-62
2023/08/05 11:08:25;;;;;;;;;;;;;;;18.90;67.83;97674.97;5120953;27;19930;-59
2023/08/05 11:11:14;;;;;;;;;;;;;;;18.86;67.77;97672.19;5122453;27;19934;-61
2023/08/05 11:14:02;;;;;;;;;;;;;;;18.87;68.28;97670.25;5122267;27;19952;-62
2023/08/05 11:16:51;;;;;;;;;;;;;;;18.87;67.77;97667.50;5123448;27;20408;-60
2023/08/05 11:19:52;;;;;;;;;;;;;;;18.87;69.02;97667.50;5122285;27;19924;-60
2023/08/05 11:22:43;;;;;;;;;;;;;;;18.99;67.77;97659.00;5123685;27;19924;-59
2023/08/05 11:25:31;;;;;;;;;;;;;;;18.90;67.33;97662.00;5108890;27;19930;-60
2023/08/05 11:28:20;;;;;;;;;;;;;;;18.95;67.55;97655.41;5123979;27;19931;-61
2023/08/05 11:31:08;;;;;;;;;;;;;;;18.96;67.29;97652.28;5121558;27;19931;-60
2023/08/05 11:33:59;;;;;;;;;;;;;;;18.93;65.81;97646.72;5120908;27;21797;-59
2023/08/05 11:36:54;;;;;;;;;;;;;;;18.93;66.72;97643.97;5121565;27;19927;-60
2023/08/05 11:39:43;;;;;;;;;;;;;;;18.99;66.73;97639.72;5122032;27;19931;-59
2023/08/05 11:42:31;;;;;;;;;;;;;;;19.01;66.88;97631.88;5105053;27;19927;-59
2023/08/05 11:45:19;;;;;;;;;;;;;;;19.11;66.79;97620.22;5124356;27;19927;-59
2023/08/05 11:48:08;;;;;;;;;;;;;;;19.13;66.96;97620.66;5122308;27;19927;-59
2023/08/05 11:50:59;;;;;;;;;;;;;;;19.16;66.32;97614.38;5123370;27;19930;-59
2023/08/05 11:53:49;;;;;;;;;;;;;;;19.21;66.01;97608.53;5109265;27;19930;-61
2023/08/05 11:56:37;;;;;;;;;;;;;;;19.19;66.35;97597.13;5122313;27;19931;-60
2023/08/05 11:59:38;;;;;;;;;;;;;;;19.30;64.23;97600.00;5117495;27;19931;-59
2023/08/05 12:02:26;;;;;;;;;;;;;;;19.41;64.43;97597.34;5123070;27;19935;-60
2023/08/05 12:05:18;;;;;;;;;;;;;;;19.48;64.32;97597.41;5116648;27;20259;-61
2023/08/05 12:08:06;;;;;;;;;;;;;;;19.54;65.08;97591.19;5118435;27;19923;-60
2023/08/05 12:10:58;;;;;;;;;;;;;;;19.57;64.05;97586.91;5106788;27;19927;-62
2023/08/05 12:13:46;;;;;;;;;;;;;;;19.59;64.51;97581.81;5123836;27;19923;-60
2023/08/05 12:16:34;;;;;;;;;;;;;;;19.66;63.22;97587.41;5105333;27;19928;-60
2023/08/05 12:19:25;;;;;;;;;;;;;;;19.66;63.97;97581.91;5122022;27;19923;-62
2023/08/05 12:22:13;;;;;;;;;;;;;;;19.65;63.80;97583.06;5122099;27;19938;-61
2023/08/05 12:25:01;;;;;;;;;;;;;;;19.58;61.57;97571.94;5125245;27;19927;-60
2023/08/05 12:27:51;;;;;;;;;;;;;;;19.64;62.22;97567.69;5140997;27;19923;-61
2023/08/05 12:30:39;;;;;;;;;;;;;;;19.68;63.04;97563.03;5120221;27;20629;-61
2023/08/05 12:33:28;;;;;;;;;;;;;;;19.73;62.55;97557.16;5121108;27;19928;-61
2023/08/05 12:36:16;;;;;;;;;;;;;;;19.74;62.28;97555.97;5121980;27;19931;-62
2023/08/05 12:39:04;;;;;;;;;;;;;;;19.76;61.26;97564.69;5114856;27;20022;-61
2023/08/05 12:41:54;;;;;;;;;;;;;;;19.92;68.43;97553.41;5118312;27;19927;-68
2023/08/05 12:44:44;;;;;;;;;;;;;;;19.85;62.66;97537.56;5121414;27;20138;-65
2023/08/05 12:47:32;;;;;;;;;;;;;;;19.91;60.72;97543.53;5119308;27;19924;-66
2023/08/05 12:50:20;;;;;;;;;;;;;;;19.89;60.51;97546.66;5116336;27;20295;-65
2023/08/05 12:53:08;;;;;;;;;;;;;;;20.05;65.43;97549.16;5120620;27;19930;-67
2023/08/05 12:55:57;;;;;;;;;;;;;;;20.00;61.27;97546.75;5117801;27;19928;-69
2023/08/05 12:58:45;;;;;;;;;;;;;;;20.01;60.18;97542.81;5103972;27;19927;-67
2023/08/05 13:01:35;;;;;;;;;;;;;;;20.02;58.24;97549.13;5106724;27;19942;-66
2023/08/05 13:04:23;;;;;;;;;;;;;;;19.97;57.26;97541.19;5102384;27;19928;-67
2023/08/05 13:07:11;;;;;;;;;;;;;;;20.00;57.70;97540.44;5123706;27;20307;-66
2023/08/05 13:09:59;;;;;;;;;;;;;;;20.10;55.45;97548.00;5111194;27;19927;-65
2023/08/05 13:12:48;;;;;;;;;;;;;;;20.10;55.69;97545.25;5116612;27;19932;-68
2023/08/05 13:15:36;;;;;;;;;;;;;;;20.03;55.52;97543.25;5106841;27;19967;-65
2023/08/05 13:18:26;;;;;;;;;;;;;;;20.09;56.50;97543.69;5120270;27;19923;-65
2023/08/05 13:21:14;;;;;;;;;;;;;;;20.06;58.75;97547.97;5101511;27;20288;-63
2023/08/05 13:24:02;;;;;;;;;;;;;;;20.14;57.46;97546.09;5106469;28;19927;-67
2023/08/05 13:26:51;;;;;;;;;;;;;;;20.10;58.53;97548.00;5109345;28;19924;-66
2023/08/05 13:29:39;;;;;;;;;;;;;;;20.06;58.84;97541.66;5106828;28;20316;-66
2023/08/05 13:32:27;;;;;;;;;;;;;;;20.05;58.59;97537.34;5100068;28;19924;-64
2023/08/05 13:35:17;;;;;;;;;;;;;;;20.07;58.33;97534.97;5100444;28;19931;-65
2023/08/05 13:38:05;;;;;;;;;;;;;;;20.01;58.01;97533.75;5088456;27;20304;-65
2023/08/05 13:40:53;;;;;;;;;;;;;;;19.95;57.76;97529.78;5111828;27;19942;-64
2023/08/05 13:43:42;;;;;;;;;;;;;;;19.95;57.87;97530.56;5120383;27;19927;-66
2023/08/05 13:46:30;;;;;;;;;;;;;;;20.04;56.16;97520.00;5116964;27;19935;-65
2023/08/05 13:49:19;;;;;;;;;;;;;;;20.05;57.12;97527.09;5107486;27;19963;-66
2023/08/05 13:52:09;;;;;;;;;;;;;;;20.16;57.97;97516.13;5114046;27;19953;-65
2023/08/05 13:54:57;;;;;;;;;;;;;;;20.12;57.97;97518.06;5102163;27;19923;-67
2023/08/05 13:57:45;;;;;;;;;;;;;;;20.20;57.21;97522.47;5108673;27;19924;-65
2023/08/05 14:00:35;;;;;;;;;;;;;;;20.11;57.22;97517.28;5094810;27;19928;-65
2023/08/05 14:03:24;;;;;;;;;;;;;;;20.17;56.25;97519.69;5100613;27;19931;-64
2023/08/05 14:06:12;;;;;;;;;;;;;;;20.13;57.00;97511.38;5115185;27;19973;-64
2023/08/05 14:09:07;;;;;;;;;;;;;;;20.15;56.87;97509.84;5116189;27;19963;-66
2023/08/05 14:11:55;;;;;;;;;;;;;;;20.21;57.48;97509.47;5108798;27;19931;-64
2023/08/05 14:14:44;;;;;;;;;;;;;;;20.33;55.48;97509.16;5110840;27;19927;-66
2023/08/05 14:17:32;;;;;;;;;;;;;;;20.21;55.73;97515.00;5105268;27;19923;-64
2023/08/05 14:20:20;;;;;;;;;;;;;;;20.20;56.82;97511.44;5123799;27;19924;-64
2023/08/05 14:23:09;;;;;;;;;;;;;;;20.29;57.31;97508.31;5120763;27;19927;-65
2023/08/05 14:25:58;;;;;;;;;;;;;;;20.28;58.16;97513.06;5127434;27;20019;-65
2023/08/05 14:28:47;;;;;;;;;;;;;;;20.33;54.00;97514.66;5113054;27;20324;-64
2023/08/05 14:31:35;;;;;;;;;;;;;;;20.29;55.61;97513.84;5129862;27;19927;-66
2023/08/05 14:34:24;;;;;;;;;;;;;;;20.30;55.00;97505.22;5125878;27;20376;-67
2023/08/05 14:37:12;;;;;;;;;;;;;;;20.35;56.53;97502.09;5115774;27;19934;-68
2023/08/05 14:40:00;;;;;;;;;;;;;;;20.36;55.60;97492.63;5121242;27;20277;-64
2023/08/05 14:42:50;;;;;;;;;;;;;;;20.30;56.59;97491.41;5126382;27;19931;-67